Terminal Aerodrome Forecast
Issued by NWS Twin Cities, MN

Home | Current Version | Previous Version | Text Only | Print | Product List | Glossary Off
Versions: 1 2 3 4 5 6 7 8 9 10 11 12 13 14 15 16 17 18 19 20 21 22

000
FTUS43 KMPX 162220 AAB
TAFSTC
TAF AMD
KSTC 162220Z 1622/1718 06007KT P6SM VCSH BKN012
     FM170100 09007KT 2SM -TSRA BR SCT008 OVC015CB
      TEMPO 1701/1704 1/2SM TSRA OVC010CB
     FM170500 04006KT 3SM -SHRA BR VCTS OVC009CB
     FM170900 34010KT 3SM -SHRA BR OVC005
     FM171400 32013G20KT 4SM -SHRA BR OVC005=

USA.gov is the U.S. government's official web portal to all federal, state and local government web resources and services.